Time,TemperatureF,DewpointF,PressureIn,WindDirection,WindDirectionDegrees,WindSpeedMPH,WindSpeedGustMPH,Humidity,HourlyPrecipIn,Conditions,Clouds,dailyrainin,SoftwareType,DateUTC
2013-01-22 00:02:00,24.2,22.5,30.25,SW,235,0.0,0.0,93,0.00,,---,0.00,VWS V14.01,2013-01-22 08:02:00,
2013-01-22 00:07:00,24.1,22.4,30.25,SW,235,0.0,0.0,93,0.00,,---,0.00,VWS V14.01,2013-01-22 08:07:00,
2013-01-22 00:12:00,24.1,22.4,30.25,SW,235,0.0,0.0,93,0.00,,---,0.00,VWS V14.01,2013-01-22 08:12:00,
2013-01-22 00:17:00,24.0,22.3,30.25,SW,235,0.0,0.0,93,0.00,,---,0.00,VWS V14.01,2013-01-22 08:17:00,
2013-01-22 00:22:00,24.0,22.3,30.25,SW,235,0.0,0.0,93,0.00,,---,0.00,VWS V14.01,2013-01-22 08:22:00,
2013-01-22 00:27:00,24.0,22.3,30.25,SW,235,0.0,0.0,93,0.00,,---,0.00,VWS V14.01,2013-01-22 08:27:00,
2013-01-22 00:32:00,23.9,22.2,30.25,SW,235,0.0,0.0,93,0.00,,---,0.00,VWS V14.01,2013-01-22 08:32:00,
2013-01-22 00:37:00,23.9,22.2,30.25,SW,234,0.0,0.0,93,0.00,,---,0.00,VWS V14.01,2013-01-22 08:37:00,
2013-01-22 00:42:00,23.8,22.1,30.24,SW,235,0.0,0.0,93,0.00,,---,0.00,VWS V14.01,2013-01-22 08:42:00,
2013-01-22 00:47:00,23.9,22.4,30.24,SW,235,0.0,0.0,94,0.00,,---,0.00,VWS V14.01,2013-01-22 08:47:00,
2013-01-22 00:52:00,23.9,22.4,30.24,SW,235,0.0,0.0,94,0.00,,---,0.00,VWS V14.01,2013-01-22 08:52:00,
2013-01-22 00:57:00,24.1,22.6,30.24,SW,235,0.0,0.0,94,0.00,,---,0.00,VWS V14.01,2013-01-22 08:57:00,
2013-01-22 01:02:00,24.2,22.7,30.24,SW,235,0.0,0.0,94,0.00,,---,0.00,VWS V14.01,2013-01-22 09:02:00,
2013-01-22 01:07:00,24.3,22.8,30.24,SW,235,0.0,0.0,94,0.00,,---,0.00,VWS V14.01,2013-01-22 09:07:00,
2013-01-22 01:12:00,24.4,22.9,30.24,SW,235,0.0,0.0,94,0.00,,---,0.00,VWS V14.01,2013-01-22 09:12:00,
2013-01-22 01:17:00,24.4,22.9,30.24,South,181,0.0,0.0,94,0.00,,---,0.00,VWS V14.01,2013-01-22 09:17:00,
2013-01-22 01:22:00,24.3,22.6,30.24,South,181,0.0,0.0,93,0.00,,---,0.00,VWS V14.01,2013-01-22 09:22:00,
2013-01-22 01:27:00,24.2,22.5,30.24,South,181,0.0,0.0,93,0.00,,---,0.00,VWS V14.01,2013-01-22 09:27:00,
2013-01-22 01:32:00,24.1,22.4,30.24,South,181,0.0,0.0,93,0.00,,---,0.00,VWS V14.01,2013-01-22 09:32:00,
2013-01-22 01:37:00,24.1,22.4,30.23,South,181,0.0,0.0,93,0.00,,---,0.00,VWS V14.01,2013-01-22 09:37:00,
2013-01-22 01:43:00,24.1,22.4,30.23,South,181,0.0,0.0,93,0.00,,---,0.00,VWS V14.01,2013-01-22 09:43:00,
2013-01-22 01:48:00,24.2,22.5,30.24,South,181,0.0,0.0,93,0.00,,---,0.00,VWS V14.01,2013-01-22 09:48:00,
2013-01-22 01:53:00,24.2,22.5,30.24,South,181,0.0,0.0,93,0.00,,---,0.00,VWS V14.01,2013-01-22 09:53:00,
2013-01-22 01:58:00,24.1,22.4,30.23,South,181,0.0,0.0,93,0.00,,---,0.00,VWS V14.01,2013-01-22 09:58:00,
2013-01-22 02:03:00,24.0,22.3,30.23,South,181,0.0,0.0,93,0.00,,---,0.00,VWS V14.01,2013-01-22 10:03:00,
2013-01-22 02:08:00,23.9,22.2,30.23,South,181,0.0,0.0,93,0.00,,---,0.00,VWS V14.01,2013-01-22 10:08:00,
2013-01-22 02:13:00,23.9,22.2,30.23,South,181,0.0,0.0,93,0.00,,---,0.00,VWS V14.01,2013-01-22 10:13:00,
2013-01-22 02:18:00,23.7,22.0,30.23,South,181,0.0,0.0,93,0.00,,---,0.00,VWS V14.01,2013-01-22 10:18:00,
2013-01-22 02:23:00,23.6,21.9,30.23,South,181,0.0,0.0,93,0.00,,---,0.00,VWS V14.01,2013-01-22 10:23:00,
2013-01-22 02:28:00,23.5,21.8,30.23,South,181,0.0,0.0,93,0.00,,---,0.00,VWS V14.01,2013-01-22 10:28:00,
2013-01-22 02:33:00,23.4,21.7,30.23,South,181,0.0,0.0,93,0.00,,---,0.00,VWS V14.01,2013-01-22 10:33:00,
2013-01-22 02:38:00,23.3,21.6,30.23,South,181,0.0,0.0,93,0.00,,---,0.00,VWS V14.01,2013-01-22 10:38:00,
2013-01-22 02:43:00,23.2,21.5,30.22,South,181,0.0,0.0,93,0.00,,---,0.00,VWS V14.01,2013-01-22 10:43:00,
2013-01-22 02:48:00,23.1,21.4,30.22,South,181,0.0,0.0,93,0.00,,---,0.00,VWS V14.01,2013-01-22 10:48:00,
2013-01-22 02:53:00,22.9,21.2,30.22,South,181,0.0,0.0,93,0.00,,---,0.00,VWS V14.01,2013-01-22 10:53:00,
2013-01-22 02:58:00,22.7,21.0,30.22,South,181,0.0,0.0,93,0.00,,---,0.00,VWS V14.01,2013-01-22 10:58:00,
2013-01-22 03:03:00,22.6,20.9,30.22,South,181,0.0,0.0,93,0.00,,---,0.00,VWS V14.01,2013-01-22 11:03:00,
2013-01-22 03:08:00,22.5,20.8,30.22,South,181,0.0,0.0,93,0.00,,---,0.00,VWS V14.01,2013-01-22 11:08:00,
2013-01-22 03:13:00,22.4,20.7,30.22,South,181,0.0,0.0,93,0.00,,---,0.00,VWS V14.01,2013-01-22 11:13:00,
2013-01-22 03:18:00,22.2,20.5,30.22,South,181,0.0,0.0,93,0.00,,---,0.00,VWS V14.01,2013-01-22 11:18:00,
2013-01-22 03:23:00,22.1,20.4,30.23,South,181,0.0,0.0,93,0.00,,---,0.00,VWS V14.01,2013-01-22 11:23:00,
2013-01-22 03:28:00,21.9,20.2,30.22,South,181,0.0,1.0,93,0.00,,---,0.00,VWS V14.01,2013-01-22 11:28:00,
2013-01-22 03:33:00,21.7,20.0,30.23,South,181,0.0,0.0,93,0.00,,---,0.00,VWS V14.01,2013-01-22 11:33:00,
2013-01-22 03:38:00,21.6,19.9,30.22,South,181,0.0,0.0,93,0.00,,---,0.00,VWS V14.01,2013-01-22 11:38:00,
2013-01-22 03:43:00,21.5,19.8,30.22,South,181,0.0,0.0,93,0.00,,---,0.00,VWS V14.01,2013-01-22 11:43:00,
2013-01-22 03:48:00,21.4,19.7,30.23,South,181,0.0,0.0,93,0.00,,---,0.00,VWS V14.01,2013-01-22 11:48:00,
2013-01-22 03:53:00,21.5,20.0,30.23,South,181,0.0,0.0,94,0.00,,---,0.00,VWS V14.01,2013-01-22 11:53:00,
2013-01-22 03:58:00,21.4,19.9,30.23,South,181,0.0,0.0,94,0.00,,---,0.00,VWS V14.01,2013-01-22 11:58:00,
2013-01-22 04:03:00,21.4,19.9,30.23,South,181,0.0,0.0,94,0.00,,---,0.00,VWS V14.01,2013-01-22 12:03:00,
2013-01-22 04:08:00,21.4,19.9,30.23,South,181,0.0,0.0,94,0.00,,---,0.00,VWS V14.01,2013-01-22 12:08:00,
2013-01-22 04:13:00,21.3,19.9,30.23,South,181,0.0,0.0,94,0.00,,---,0.00,VWS V14.01,2013-01-22 12:13:00,
2013-01-22 04:18:00,21.2,19.8,30.23,South,181,0.0,0.0,94,0.00,,---,0.00,VWS V14.01,2013-01-22 12:18:00,
2013-01-22 04:23:00,21.1,19.4,30.23,South,181,0.0,0.0,93,0.00,,---,0.00,VWS V14.01,2013-01-22 12:23:00,
2013-01-22 04:28:00,20.9,19.2,30.23,South,181,0.0,0.0,93,0.00,,---,0.00,VWS V14.01,2013-01-22 12:28:00,
2013-01-22 04:33:00,20.8,19.1,30.23,South,181,0.0,0.0,93,0.00,,---,0.00,VWS V14.01,2013-01-22 12:33:00,
2013-01-22 04:38:00,20.8,19.1,30.22,South,181,0.0,0.0,93,0.00,,---,0.00,VWS V14.01,2013-01-22 12:38:00,
2013-01-22 04:43:00,20.8,19.4,30.22,South,181,0.0,0.0,94,0.00,,---,0.00,VWS V14.01,2013-01-22 12:43:00,
2013-01-22 04:48:00,20.7,19.2,30.22,South,181,0.0,0.0,94,0.00,,---,0.00,VWS V14.01,2013-01-22 12:48:00,
2013-01-22 04:53:00,20.7,19.2,30.22,South,181,0.0,0.0,94,0.00,,---,0.00,VWS V14.01,2013-01-22 12:53:00,
2013-01-22 04:59:00,20.7,19.2,30.22,South,181,0.0,0.0,94,0.00,,---,0.00,VWS V14.01,2013-01-22 12:59:00,
2013-01-22 05:03:00,20.8,19.4,30.21,South,181,0.0,0.0,94,0.00,,---,0.00,VWS V14.01,2013-01-22 13:03:00,
2013-01-22 05:08:00,20.8,19.4,30.21,South,181,0.0,0.0,94,0.00,,---,0.00,VWS V14.01,2013-01-22 13:08:00,
2013-01-22 05:13:00,20.8,19.4,30.21,South,181,0.0,0.0,94,0.00,,---,0.00,VWS V14.01,2013-01-22 13:13:00,
2013-01-22 05:18:00,20.8,19.4,30.21,South,181,0.0,0.0,94,0.00,,---,0.00,VWS V14.01,2013-01-22 13:18:00,
2013-01-22 05:23:00,20.8,19.4,30.21,South,181,0.0,0.0,94,0.00,,---,0.00,VWS V14.01,2013-01-22 13:23:00,
2013-01-22 05:28:00,20.7,19.2,30.21,South,181,0.0,0.0,94,0.00,,---,0.00,VWS V14.01,2013-01-22 13:28:00,
2013-01-22 05:33:00,20.8,19.4,30.21,South,181,0.0,0.0,94,0.00,,---,0.00,VWS V14.01,2013-01-22 13:33:00,
2013-01-22 05:38:00,21.0,19.5,30.21,SSW,200,0.0,1.0,94,0.00,,---,0.00,VWS V14.01,2013-01-22 13:38:00,
2013-01-22 05:43:00,21.2,20.0,30.21,SSW,200,0.0,1.0,95,0.00,,---,0.00,VWS V14.01,2013-01-22 13:43:00,
2013-01-22 05:48:00,21.3,20.1,30.21,SSW,200,0.0,0.0,95,0.00,,---,0.00,VWS V14.01,2013-01-22 13:48:00,
2013-01-22 05:53:00,21.4,19.9,30.21,SSW,200,0.0,0.0,94,0.00,,---,0.00,VWS V14.01,2013-01-22 13:53:00,
2013-01-22 05:58:00,21.4,19.9,30.21,SSW,200,0.0,0.0,94,0.00,,---,0.00,VWS V14.01,2013-01-22 13:58:00,
2013-01-22 06:04:00,21.2,19.5,30.21,SSW,200,0.0,0.0,93,0.00,,---,0.00,VWS V14.01,2013-01-22 14:04:00,
2013-01-22 06:09:00,21.2,19.5,30.21,SSW,200,0.0,0.0,93,0.00,,---,0.00,VWS V14.01,2013-01-22 14:09:00,
2013-01-22 06:14:00,21.0,19.3,30.20,SSW,200,0.0,0.0,93,0.00,,---,0.00,VWS V14.01,2013-01-22 14:14:00,
2013-01-22 06:19:00,20.8,19.1,30.20,SSW,200,0.0,0.0,93,0.00,,---,0.00,VWS V14.01,2013-01-22 14:19:00,
2013-01-22 06:24:00,20.8,19.1,30.20,SSW,200,0.0,0.0,93,0.00,,---,0.00,VWS V14.01,2013-01-22 14:24:00,
2013-01-22 06:29:00,20.6,18.9,30.19,SSW,200,0.0,0.0,93,0.00,,---,0.00,VWS V14.01,2013-01-22 14:29:00,
2013-01-22 06:34:00,20.4,18.7,30.19,SSW,200,0.0,0.0,93,0.00,,---,0.00,VWS V14.01,2013-01-22 14:34:00,
2013-01-22 06:39:00,20.4,18.7,30.19,SSW,200,0.0,0.0,93,0.00,,---,0.00,VWS V14.01,2013-01-22 14:39:00,
2013-01-22 06:44:00,20.3,18.6,30.19,SSW,200,0.0,0.0,93,0.00,,---,0.00,VWS V14.01,2013-01-22 14:44:00,
2013-01-22 06:49:00,20.2,18.5,30.19,SSW,200,0.0,0.0,93,0.00,,---,0.00,VWS V14.01,2013-01-22 14:49:00,
2013-01-22 06:54:00,20.0,18.3,30.19,SSW,200,0.0,0.0,93,0.00,,---,0.00,VWS V14.01,2013-01-22 14:54:00,
2013-01-22 06:59:00,19.8,18.1,30.20,SSW,200,0.0,0.0,93,0.00,,---,0.00,VWS V14.01,2013-01-22 14:59:00,
2013-01-22 07:04:00,19.9,18.5,30.20,SSW,200,0.0,0.0,94,0.00,,---,0.00,VWS V14.01,2013-01-22 15:04:00,
2013-01-22 07:09:00,19.9,18.5,30.20,SSW,200,0.0,0.0,94,0.00,,---,0.00,VWS V14.01,2013-01-22 15:09:00,
2013-01-22 07:14:00,19.9,18.5,30.20,SSW,200,0.0,0.0,94,0.00,,---,0.00,VWS V14.01,2013-01-22 15:14:00,
2013-01-22 07:19:00,19.8,18.4,30.20,SSW,200,0.0,0.0,94,0.00,,---,0.00,VWS V14.01,2013-01-22 15:19:00,
2013-01-22 07:24:00,19.8,18.4,30.19,SSW,200,0.0,0.0,94,0.00,,---,0.00,VWS V14.01,2013-01-22 15:24:00,
2013-01-22 07:29:00,19.6,17.9,30.19,SSW,200,0.0,0.0,93,0.00,,---,0.00,VWS V14.01,2013-01-22 15:29:00,
2013-01-22 07:34:00,19.6,18.2,30.19,SSW,200,0.0,0.0,94,0.00,,---,0.00,VWS V14.01,2013-01-22 15:34:00,
2013-01-22 07:39:00,19.5,18.1,30.19,SSW,200,0.0,0.0,94,0.00,,---,0.00,VWS V14.01,2013-01-22 15:39:00,
2013-01-22 07:44:00,19.5,18.1,30.19,SSW,200,0.0,0.0,94,0.00,,---,0.00,VWS V14.01,2013-01-22 15:44:00,
2013-01-22 07:49:00,19.4,18.0,30.19,SSW,200,0.0,0.0,94,0.00,,---,0.00,VWS V14.01,2013-01-22 15:49:00,
2013-01-22 07:54:00,19.5,18.1,30.19,SSW,200,0.0,0.0,94,0.00,,---,0.00,VWS V14.01,2013-01-22 15:54:00,
2013-01-22 07:59:00,19.6,18.2,30.19,SSW,200,0.0,0.0,94,0.00,,---,0.00,VWS V14.01,2013-01-22 15:59:00,
2013-01-22 08:04:00,19.9,18.5,30.20,SSW,200,0.0,0.0,94,0.00,,---,0.00,VWS V14.01,2013-01-22 16:04:00,
2013-01-22 08:09:00,20.1,18.9,30.20,SSW,200,0.0,0.0,95,0.00,,---,0.00,VWS V14.01,2013-01-22 16:09:00,
2013-01-22 08:14:00,20.4,19.2,30.20,SSW,200,0.0,0.0,95,0.00,,---,0.00,VWS V14.01,2013-01-22 16:14:00,
2013-01-22 08:19:00,20.7,19.5,30.20,SSW,200,0.0,0.0,95,0.00,,---,0.00,VWS V14.01,2013-01-22 16:19:00,
2013-01-22 08:24:00,21.1,19.9,30.20,SSW,200,0.0,0.0,95,0.00,,---,0.00,VWS V14.01,2013-01-22 16:24:00,
2013-01-22 08:29:00,21.6,20.6,30.19,SSW,200,0.0,0.0,96,0.00,,---,0.00,VWS V14.01,2013-01-22 16:29:00,
2013-01-22 08:34:00,22.0,21.0,30.19,SSW,200,0.0,0.0,96,0.00,,---,0.00,VWS V14.01,2013-01-22 16:34:00,
2013-01-22 08:39:00,22.5,21.5,30.19,SSW,200,0.0,0.0,96,0.00,,---,0.00,VWS V14.01,2013-01-22 16:39:00,
2013-01-22 08:44:00,23.1,22.1,30.20,SSW,200,0.0,0.0,96,0.00,,---,0.00,VWS V14.01,2013-01-22 16:44:00,
2013-01-22 08:49:00,23.6,22.6,30.20,SSW,200,0.0,0.0,96,0.00,,---,0.00,VWS V14.01,2013-01-22 16:49:00,
2013-01-22 08:54:00,24.1,23.1,30.19,SSW,200,0.0,0.0,96,0.00,,---,0.00,VWS V14.01,2013-01-22 16:54:00,
2013-01-22 08:59:00,24.6,23.6,30.19,SSW,200,0.0,0.0,96,0.00,,---,0.00,VWS V14.01,2013-01-22 16:59:00,
2013-01-22 09:04:00,25.1,24.1,30.19,SSW,200,0.0,0.0,96,0.00,,---,0.00,VWS V14.01,2013-01-22 17:04:00,
2013-01-22 09:09:00,25.6,24.6,30.19,SSW,200,0.0,0.0,96,0.00,,---,0.00,VWS V14.01,2013-01-22 17:09:00,
2013-01-22 09:14:00,26.0,25.0,30.19,SSW,200,0.0,0.0,96,0.00,,---,0.00,VWS V14.01,2013-01-22 17:14:00,
2013-01-22 09:19:00,26.3,25.3,30.19,SSW,200,0.0,0.0,96,0.00,,---,0.00,VWS V14.01,2013-01-22 17:19:00,
2013-01-22 09:24:00,26.6,25.6,30.19,SSW,200,0.0,0.0,96,0.00,,---,0.00,VWS V14.01,2013-01-22 17:24:00,
2013-01-22 09:29:00,27.0,26.0,30.19,SSW,200,0.0,0.0,96,0.00,,---,0.00,VWS V14.01,2013-01-22 17:29:00,
2013-01-22 09:34:00,27.4,26.2,30.19,SSW,200,0.0,0.0,95,0.00,,---,0.00,VWS V14.01,2013-01-22 17:34:00,
2013-01-22 09:39:00,27.8,26.6,30.19,SSW,200,0.0,0.0,95,0.00,,---,0.00,VWS V14.01,2013-01-22 17:39:00,
2013-01-22 09:44:00,28.2,27.0,30.20,SW,234,1.0,2.0,95,0.00,,---,0.00,VWS V14.01,2013-01-22 17:44:00,
2013-01-22 09:49:00,28.6,27.1,30.20,SW,234,0.0,0.0,94,0.00,,---,0.00,VWS V14.01,2013-01-22 17:49:00,
2013-01-22 09:54:00,28.9,27.4,30.20,SW,234,0.0,0.0,94,0.00,,---,0.00,VWS V14.01,2013-01-22 17:54:00,
2013-01-22 09:59:00,29.2,27.4,30.20,SW,234,0.0,0.0,93,0.00,,---,0.00,VWS V14.01,2013-01-22 17:59:00,
2013-01-22 10:04:00,29.7,27.9,30.20,WSW,244,0.0,0.0,93,0.00,,---,0.00,VWS V14.01,2013-01-22 18:04:00,
2013-01-22 10:09:00,30.1,28.3,30.20,WSW,244,0.0,0.0,93,0.00,,---,0.00,VWS V14.01,2013-01-22 18:09:00,
2013-01-22 10:14:00,30.4,28.4,30.20,WSW,244,0.0,1.0,92,0.00,,---,0.00,VWS V14.01,2013-01-22 18:14:00,
2013-01-22 10:19:00,30.5,28.2,30.20,WNW,284,0.0,0.0,91,0.00,,---,0.00,VWS V14.01,2013-01-22 18:19:00,
2013-01-22 10:24:00,30.7,28.4,30.20,WNW,284,0.0,0.0,91,0.00,,---,0.00,VWS V14.01,2013-01-22 18:24:00,
2013-01-22 10:29:00,30.8,28.2,30.20,WNW,284,0.0,0.0,90,0.00,,---,0.00,VWS V14.01,2013-01-22 18:29:00,
2013-01-22 10:34:00,31.0,28.4,30.19,WNW,284,0.0,0.0,90,0.00,,---,0.00,VWS V14.01,2013-01-22 18:34:00,
2013-01-22 10:39:00,31.1,28.2,30.19,WNW,284,0.0,0.0,89,0.00,,---,0.00,VWS V14.01,2013-01-22 18:39:00,
2013-01-22 10:44:00,31.4,28.8,30.19,WNW,284,0.0,1.0,90,0.00,,---,0.00,VWS V14.01,2013-01-22 18:44:00,
2013-01-22 10:49:00,31.6,28.7,30.18,WNW,284,0.0,0.0,89,0.00,,---,0.00,VWS V14.01,2013-01-22 18:49:00,
2013-01-22 10:54:00,31.8,28.9,30.18,WNW,284,0.0,1.0,89,0.00,,---,0.00,VWS V14.01,2013-01-22 18:54:00,
2013-01-22 10:59:00,32.0,29.1,30.18,WNW,284,0.0,0.0,89,0.00,,---,0.00,VWS V14.01,2013-01-22 18:59:00,
2013-01-22 11:04:00,32.3,29.4,30.18,WNW,284,0.0,0.0,89,0.00,,---,0.00,VWS V14.01,2013-01-22 19:04:00,
2013-01-22 11:09:00,32.9,30.0,30.18,WNW,284,0.0,0.0,89,0.00,,---,0.00,VWS V14.01,2013-01-22 19:09:00,
2013-01-22 11:14:00,33.3,29.9,30.18,WNW,292,0.0,0.0,87,0.00,,---,0.00,VWS V14.01,2013-01-22 19:14:00,
2013-01-22 11:19:00,33.9,30.7,30.17,WNW,301,0.0,2.0,88,0.00,,---,0.00,VWS V14.01,2013-01-22 19:19:00,
2013-01-22 11:24:00,34.7,31.2,30.17,WNW,296,0.0,0.0,87,0.00,,---,0.00,VWS V14.01,2013-01-22 19:24:00,
2013-01-22 11:29:00,35.4,31.1,30.17,NW,311,0.0,0.0,84,0.00,,---,0.00,VWS V14.01,2013-01-22 19:29:00,
2013-01-22 11:34:00,36.1,31.7,30.17,NW,311,0.0,0.0,84,0.00,,---,0.00,VWS V14.01,2013-01-22 19:34:00,
2013-01-22 11:39:00,36.9,31.6,30.16,NW,311,0.0,0.0,81,0.00,,---,0.00,VWS V14.01,2013-01-22 19:39:00,
2013-01-22 11:44:00,37.3,31.4,30.16,NW,309,0.0,2.0,79,0.00,,---,0.00,VWS V14.01,2013-01-22 19:44:00,
2013-01-22 11:49:00,37.6,31.7,30.15,WNW,298,0.0,0.0,79,0.00,,---,0.00,VWS V14.01,2013-01-22 19:49:00,
2013-01-22 11:55:00,38.0,31.8,30.15,West,277,2.0,3.0,78,0.00,,---,0.00,VWS V14.01,2013-01-22 19:55:00,
2013-01-22 12:00:00,38.3,31.4,30.15,West,271,2.0,2.0,76,0.00,,---,0.00,VWS V14.01,2013-01-22 20:00:00,
2013-01-22 12:05:00,38.5,31.9,30.15,West,271,1.0,2.0,77,0.00,,---,0.00,VWS V14.01,2013-01-22 20:05:00,
2013-01-22 12:10:00,38.9,32.0,30.14,WNW,288,2.0,2.0,76,0.00,,---,0.00,VWS V14.01,2013-01-22 20:10:00,
2013-01-22 12:15:00,39.3,32.0,30.14,WNW,288,0.0,1.0,75,0.00,,---,0.00,VWS V14.01,2013-01-22 20:15:00,
2013-01-22 12:20:00,39.8,31.9,30.14,WNW,288,1.0,2.0,73,0.00,,---,0.00,VWS V14.01,2013-01-22 20:20:00,
2013-01-22 12:25:00,40.1,32.2,30.13,WNW,288,2.0,2.0,73,0.00,,---,0.00,VWS V14.01,2013-01-22 20:25:00,
2013-01-22 12:30:00,40.5,32.2,30.13,WNW,286,0.0,0.0,72,0.00,,---,0.00,VWS V14.01,2013-01-22 20:30:00,
2013-01-22 12:35:00,40.8,32.1,30.12,WNW,291,2.0,2.0,71,0.00,,---,0.00,VWS V14.01,2013-01-22 20:35:00,
2013-01-22 12:40:00,41.2,32.2,30.12,WNW,287,0.0,0.0,70,0.00,,---,0.00,VWS V14.01,2013-01-22 20:40:00,
2013-01-22 12:45:00,41.5,32.5,30.12,WNW,296,0.0,0.0,70,0.00,,---,0.00,VWS V14.01,2013-01-22 20:45:00,
2013-01-22 12:50:00,41.6,32.2,30.11,WNW,296,0.0,0.0,69,0.00,,---,0.00,VWS V14.01,2013-01-22 20:50:00,
2013-01-22 12:55:00,41.7,32.3,30.11,WNW,296,2.0,2.0,69,0.00,,---,0.00,VWS V14.01,2013-01-22 20:55:00,
2013-01-22 13:00:00,41.7,32.3,30.11,WNW,289,0.0,0.0,69,0.00,,---,0.00,VWS V14.01,2013-01-22 21:00:00,
2013-01-22 13:05:00,41.9,32.5,30.10,WNW,282,1.0,3.0,69,0.00,,---,0.00,VWS V14.01,2013-01-22 21:05:00,
2013-01-22 13:10:00,42.3,32.5,30.10,WNW,292,2.0,2.0,68,0.00,,---,0.00,VWS V14.01,2013-01-22 21:10:00,
2013-01-22 13:15:00,42.5,32.0,30.09,West,269,1.0,2.0,66,0.00,,---,0.00,VWS V14.01,2013-01-22 21:15:00,
2013-01-22 13:20:00,42.7,31.8,30.09,WNW,284,1.0,2.0,65,0.00,,---,0.00,VWS V14.01,2013-01-22 21:20:00,
2013-01-22 13:25:00,42.8,31.5,30.09,West,274,0.0,1.0,64,0.00,,---,0.00,VWS V14.01,2013-01-22 21:25:00,
2013-01-22 13:30:00,42.8,31.5,30.09,WNW,282,0.0,0.0,64,0.00,,---,0.00,VWS V14.01,2013-01-22 21:30:00,
2013-01-22 13:31:00,42.8,31.5,30.09,WSW,252,2.0,2.0,64,0.00,,---,0.00,VWS V14.01,2013-01-22 21:31:00,
2013-01-22 13:36:00,43.0,32.1,30.08,WNW,287,0.0,0.0,65,0.00,,---,0.00,VWS V14.01,2013-01-22 21:36:00,
2013-01-22 13:41:00,43.3,32.3,30.08,West,263,1.0,3.0,65,0.00,,---,0.00,VWS V14.01,2013-01-22 21:41:00,
2013-01-22 13:46:00,43.4,31.3,30.08,WNW,299,0.0,4.0,62,0.00,,---,0.00,VWS V14.01,2013-01-22 21:46:00,
2013-01-22 13:51:00,43.5,31.4,30.08,WNW,293,2.0,2.0,62,0.00,,---,0.00,VWS V14.01,2013-01-22 21:51:00,
2013-01-22 13:56:00,43.5,31.0,30.08,WNW,294,0.0,1.0,61,0.00,,---,0.00,VWS V14.01,2013-01-22 21:56:00,
2013-01-22 14:01:00,43.5,31.0,30.07,WNW,294,0.0,1.0,61,0.00,,---,0.00,VWS V14.01,2013-01-22 22:01:00,
2013-01-22 14:06:00,43.7,30.7,30.07,NW,306,1.0,2.0,60,0.00,,---,0.00,VWS V14.01,2013-01-22 22:06:00,
2013-01-22 14:11:00,43.8,30.8,30.07,WNW,298,1.0,3.0,60,0.00,,---,0.00,VWS V14.01,2013-01-22 22:11:00,
2013-01-22 14:16:00,44.0,31.0,30.07,NW,309,0.0,0.0,60,0.00,,---,0.00,VWS V14.01,2013-01-22 22:16:00,
2013-01-22 14:21:00,44.2,31.2,30.07,WNW,287,0.0,0.0,60,0.00,,---,0.00,VWS V14.01,2013-01-22 22:21:00,
2013-01-22 14:26:00,44.3,31.3,30.06,WNW,302,2.0,2.0,60,0.00,,---,0.00,VWS V14.01,2013-01-22 22:26:00,
2013-01-22 14:31:00,44.3,31.3,30.07,NW,305,2.0,2.0,60,0.00,,---,0.00,VWS V14.01,2013-01-22 22:31:00,
2013-01-22 14:36:00,44.3,30.9,30.07,WNW,285,0.0,1.0,59,0.00,,---,0.00,VWS V14.01,2013-01-22 22:36:00,
2013-01-22 14:41:00,44.3,31.3,30.06,WNW,288,0.0,0.0,60,0.00,,---,0.00,VWS V14.01,2013-01-22 22:41:00,
2013-01-22 14:46:00,44.2,31.2,30.06,WNW,288,0.0,0.0,60,0.00,,---,0.00,VWS V14.01,2013-01-22 22:46:00,
2013-01-22 14:51:00,44.1,31.1,30.07,WNW,284,1.0,1.0,60,0.00,,---,0.00,VWS V14.01,2013-01-22 22:51:00,
2013-01-22 14:57:00,44.1,31.5,30.07,WNW,284,1.0,3.0,61,0.00,,---,0.00,VWS V14.01,2013-01-22 22:57:00,
2013-01-22 15:02:00,44.1,31.1,30.06,WNW,283,1.0,2.0,60,0.00,,---,0.00,VWS V14.01,2013-01-22 23:02:00,
2013-01-22 15:07:00,44.1,31.1,30.07,WNW,283,0.0,1.0,60,0.00,,---,0.00,VWS V14.01,2013-01-22 23:07:00,
2013-01-22 15:12:00,44.0,31.0,30.06,WNW,283,0.0,0.0,60,0.00,,---,0.00,VWS V14.01,2013-01-22 23:12:00,
2013-01-22 15:17:00,44.1,31.5,30.06,WNW,283,0.0,0.0,61,0.00,,---,0.00,VWS V14.01,2013-01-22 23:17:00,
2013-01-22 15:22:00,44.1,31.1,30.06,WNW,282,0.0,2.0,60,0.00,,---,0.00,VWS V14.01,2013-01-22 23:22:00,
2013-01-22 15:27:00,44.1,31.5,30.06,WNW,282,0.0,0.0,61,0.00,,---,0.00,VWS V14.01,2013-01-22 23:27:00,
2013-01-22 15:32:00,44.1,31.1,30.06,WNW,282,0.0,0.0,60,0.00,,---,0.00,VWS V14.01,2013-01-22 23:32:00,
2013-01-22 15:37:00,44.1,31.1,30.05,WNW,282,0.0,0.0,60,0.00,,---,0.00,VWS V14.01,2013-01-22 23:37:00,
2013-01-22 15:42:00,44.1,31.1,30.05,WNW,282,0.0,0.0,60,0.00,,---,0.00,VWS V14.01,2013-01-22 23:42:00,
2013-01-22 15:47:00,44.1,30.7,30.05,WNW,282,0.0,0.0,59,0.00,,---,0.00,VWS V14.01,2013-01-22 23:47:00,
2013-01-22 15:52:00,44.2,30.4,30.05,WNW,282,0.0,1.0,58,0.00,,---,0.00,VWS V14.01,2013-01-22 23:52:00,
2013-01-22 15:57:00,44.2,30.8,30.05,WNW,282,0.0,0.0,59,0.00,,---,0.00,VWS V14.01,2013-01-22 23:57:00,
2013-01-22 16:02:00,44.3,30.9,30.05,WNW,282,0.0,0.0,59,0.00,,---,0.00,VWS V14.01,2013-01-23 00:02:00,
2013-01-22 16:07:00,44.3,31.3,30.05,WNW,282,0.0,0.0,60,0.00,,---,0.00,VWS V14.01,2013-01-23 00:07:00,
2013-01-22 16:13:00,44.2,31.2,30.05,WNW,282,1.0,1.0,60,0.00,,---,0.00,VWS V14.01,2013-01-23 00:13:00,
2013-01-22 16:18:00,44.2,31.2,30.05,WNW,282,0.0,0.0,60,0.00,,---,0.00,VWS V14.01,2013-01-23 00:18:00,
2013-01-22 16:23:00,44.2,31.2,30.05,WNW,282,0.0,1.0,60,0.00,,---,0.00,VWS V14.01,2013-01-23 00:23:00,
2013-01-22 16:28:00,44.2,31.6,30.05,WNW,282,0.0,0.0,61,0.00,,---,0.00,VWS V14.01,2013-01-23 00:28:00,
2013-01-22 16:33:00,44.0,31.0,30.05,WNW,282,0.0,0.0,60,0.00,,---,0.00,VWS V14.01,2013-01-23 00:33:00,
2013-01-22 16:38:00,43.9,31.3,30.05,WNW,282,0.0,1.0,61,0.00,,---,0.00,VWS V14.01,2013-01-23 00:38:00,
2013-01-22 16:43:00,43.7,31.5,30.05,WNW,282,0.0,0.0,62,0.00,,---,0.00,VWS V14.01,2013-01-23 00:43:00,
2013-01-22 16:48:00,43.4,31.3,30.04,WNW,282,0.0,0.0,62,0.00,,---,0.00,VWS V14.01,2013-01-23 00:48:00,
2013-01-22 16:53:00,43.2,31.5,30.04,WNW,282,0.0,0.0,63,0.00,,---,0.00,VWS V14.01,2013-01-23 00:53:00,
2013-01-22 16:58:00,42.9,31.6,30.04,WNW,282,0.0,0.0,64,0.00,,---,0.00,VWS V14.01,2013-01-23 00:58:00,
2013-01-22 17:03:00,42.6,31.3,30.04,WNW,282,0.0,0.0,64,0.00,,---,0.00,VWS V14.01,2013-01-23 01:03:00,
2013-01-22 17:08:00,42.2,31.7,30.04,WNW,282,0.0,0.0,66,0.00,,---,0.00,VWS V14.01,2013-01-23 01:08:00,
2013-01-22 17:13:00,41.6,31.5,30.04,WNW,282,0.0,0.0,67,0.00,,---,0.00,VWS V14.01,2013-01-23 01:13:00,
2013-01-22 17:18:00,41.1,31.4,30.04,WNW,282,0.0,0.0,68,0.00,,---,0.00,VWS V14.01,2013-01-23 01:18:00,
2013-01-22 17:23:00,40.7,31.3,30.04,WNW,282,0.0,0.0,69,0.00,,---,0.00,VWS V14.01,2013-01-23 01:23:00,
2013-01-22 17:28:00,40.2,30.9,30.04,WNW,282,0.0,0.0,69,0.00,,---,0.00,VWS V14.01,2013-01-23 01:28:00,
2013-01-22 17:33:00,39.7,30.7,30.03,WNW,282,0.0,0.0,70,0.00,,---,0.00,VWS V14.01,2013-01-23 01:33:00,
2013-01-22 17:38:00,39.2,31.0,30.03,WNW,282,0.0,0.0,72,0.00,,---,0.00,VWS V14.01,2013-01-23 01:38:00,
2013-01-22 17:43:00,38.9,31.0,30.03,WNW,282,0.0,0.0,73,0.00,,---,0.00,VWS V14.01,2013-01-23 01:43:00,
2013-01-22 17:48:00,38.7,30.8,30.03,WNW,282,0.0,0.0,73,0.00,,---,0.00,VWS V14.01,2013-01-23 01:48:00,
2013-01-22 17:53:00,38.4,30.9,30.03,WNW,282,0.0,0.0,74,0.00,,---,0.00,VWS V14.01,2013-01-23 01:53:00,
2013-01-22 17:58:00,38.0,30.5,30.03,WNW,282,0.0,0.0,74,0.00,,---,0.00,VWS V14.01,2013-01-23 01:58:00,
2013-01-22 18:03:00,37.5,30.3,30.03,WNW,282,0.0,0.0,75,0.00,,---,0.00,VWS V14.01,2013-01-23 02:03:00,
2013-01-22 18:08:00,37.3,30.4,30.02,WNW,282,0.0,0.0,76,0.00,,---,0.00,VWS V14.01,2013-01-23 02:08:00,
2013-01-22 18:13:00,37.1,30.6,30.03,WNW,282,0.0,0.0,77,0.00,,---,0.00,VWS V14.01,2013-01-23 02:13:00,
2013-01-22 18:18:00,36.8,30.3,30.03,WNW,282,0.0,0.0,77,0.00,,---,0.00,VWS V14.01,2013-01-23 02:18:00,
2013-01-22 18:23:00,36.4,29.9,30.03,WNW,282,0.0,0.0,77,0.00,,---,0.00,VWS V14.01,2013-01-23 02:23:00,
2013-01-22 18:28:00,36.1,29.9,30.03,WNW,282,0.0,0.0,78,0.00,,---,0.00,VWS V14.01,2013-01-23 02:28:00,
2013-01-22 18:33:00,35.8,29.9,30.02,WNW,282,0.0,0.0,79,0.00,,---,0.00,VWS V14.01,2013-01-23 02:33:00,
2013-01-22 18:38:00,35.6,29.7,30.02,WNW,282,0.0,0.0,79,0.00,,---,0.00,VWS V14.01,2013-01-23 02:38:00,
2013-01-22 18:43:00,35.5,30.3,30.02,WNW,282,0.0,0.0,81,0.00,,---,0.00,VWS V14.01,2013-01-23 02:43:00,
2013-01-22 18:48:00,35.4,29.9,30.02,WNW,282,0.0,0.0,80,0.00,,---,0.00,VWS V14.01,2013-01-23 02:48:00,
2013-01-22 18:53:00,35.1,29.9,30.02,WNW,282,0.0,0.0,81,0.00,,---,0.00,VWS V14.01,2013-01-23 02:53:00,
2013-01-22 18:58:00,34.8,29.9,30.02,WNW,282,0.0,0.0,82,0.00,,---,0.00,VWS V14.01,2013-01-23 02:58:00,
2013-01-22 19:03:00,34.8,29.9,30.03,WNW,282,0.0,0.0,82,0.00,,---,0.00,VWS V14.01,2013-01-23 03:03:00,
2013-01-22 19:08:00,34.8,30.2,30.03,WNW,282,0.0,0.0,83,0.00,,---,0.00,VWS V14.01,2013-01-23 03:08:00,
2013-01-22 19:13:00,34.8,29.9,30.02,WNW,282,0.0,0.0,82,0.00,,---,0.00,VWS V14.01,2013-01-23 03:13:00,
2013-01-22 19:18:00,34.7,30.1,30.02,WNW,282,0.0,0.0,83,0.00,,---,0.00,VWS V14.01,2013-01-23 03:18:00,
2013-01-22 19:23:00,34.7,30.1,30.01,WNW,282,0.0,0.0,83,0.00,,---,0.00,VWS V14.01,2013-01-23 03:23:00,
2013-01-22 19:28:00,34.6,30.3,30.01,WNW,282,0.0,0.0,84,0.00,,---,0.00,VWS V14.01,2013-01-23 03:28:00,
2013-01-22 19:33:00,34.7,30.1,30.01,WNW,282,0.0,0.0,83,0.00,,---,0.00,VWS V14.01,2013-01-23 03:33:00,
2013-01-22 19:38:00,34.6,30.3,30.01,WNW,282,0.0,0.0,84,0.00,,---,0.00,VWS V14.01,2013-01-23 03:38:00,
2013-01-22 19:43:00,34.5,30.2,30.01,WNW,282,2.0,2.0,84,0.00,,---,0.00,VWS V14.01,2013-01-23 03:43:00,
2013-01-22 19:48:00,34.5,30.5,30.01,WNW,282,0.0,0.0,85,0.00,,---,0.00,VWS V14.01,2013-01-23 03:48:00,
2013-01-22 19:53:00,34.6,30.3,30.01,WSW,243,0.0,0.0,84,0.00,,---,0.00,VWS V14.01,2013-01-23 03:53:00,
2013-01-22 19:58:00,34.7,30.7,30.01,WSW,243,0.0,0.0,85,0.00,,---,0.00,VWS V14.01,2013-01-23 03:58:00,
2013-01-22 20:03:00,35.0,30.7,30.01,WSW,243,0.0,0.0,84,0.00,,---,0.00,VWS V14.01,2013-01-23 04:03:00,
2013-01-22 20:08:00,34.9,30.6,30.01,WSW,242,0.0,0.0,84,0.00,,---,0.00,VWS V14.01,2013-01-23 04:08:00,
2013-01-22 20:13:00,34.8,30.5,30.01,WSW,242,0.0,0.0,84,0.00,,---,0.00,VWS V14.01,2013-01-23 04:13:00,
2013-01-22 20:18:00,34.9,30.9,30.01,WSW,242,0.0,0.0,85,0.00,,---,0.00,VWS V14.01,2013-01-23 04:18:00,
2013-01-22 20:23:00,34.9,30.9,30.01,WSW,242,0.0,0.0,85,0.00,,---,0.00,VWS V14.01,2013-01-23 04:23:00,
2013-01-22 20:28:00,34.7,30.7,30.01,WSW,242,0.0,0.0,85,0.00,,---,0.00,VWS V14.01,2013-01-23 04:28:00,
2013-01-22 20:33:00,34.7,30.4,30.01,WSW,242,0.0,0.0,84,0.00,,---,0.00,VWS V14.01,2013-01-23 04:33:00,
2013-01-22 20:38:00,34.5,30.5,30.01,WSW,242,0.0,0.0,85,0.00,,---,0.00,VWS V14.01,2013-01-23 04:38:00,
2013-01-22 20:43:00,34.5,30.5,30.01,SSW,213,0.0,0.0,85,0.00,,---,0.00,VWS V14.01,2013-01-23 04:43:00,
2013-01-22 20:48:00,34.5,30.5,30.01,SSW,213,0.0,0.0,85,0.00,,---,0.00,VWS V14.01,2013-01-23 04:48:00,
2013-01-22 20:53:00,34.4,30.6,30.01,SSW,213,0.0,0.0,86,0.00,,---,0.00,VWS V14.01,2013-01-23 04:53:00,
2013-01-22 20:58:00,34.4,30.6,30.01,SSW,213,0.0,0.0,86,0.00,,---,0.00,VWS V14.01,2013-01-23 04:58:00,
2013-01-22 21:01:00,34.3,30.6,30.01,SSW,213,0.0,0.0,86,0.00,,---,0.00,VWS V14.01,2013-01-23 05:01:00,
2013-01-22 21:03:00,34.3,30.6,30.01,SSW,213,0.0,0.0,86,0.00,,---,0.00,VWS V14.01,2013-01-23 05:03:00,
2013-01-22 21:08:00,34.2,30.5,30.00,SSW,213,0.0,0.0,86,0.00,,---,0.00,VWS V14.01,2013-01-23 05:08:00,
2013-01-22 21:13:00,34.1,30.4,30.01,SSW,213,1.0,1.0,86,0.00,,---,0.00,VWS V14.01,2013-01-23 05:13:00,
2013-01-22 21:18:00,34.2,30.5,30.00,SSW,213,0.0,0.0,86,0.00,,---,0.00,VWS V14.01,2013-01-23 05:18:00,
2013-01-22 21:23:00,34.2,30.5,30.01,SSW,213,0.0,0.0,86,0.00,,---,0.00,VWS V14.01,2013-01-23 05:23:00,
2013-01-22 21:28:00,34.3,30.6,30.01,SW,231,1.0,1.0,86,0.00,,---,0.00,VWS V14.01,2013-01-23 05:28:00,
2013-01-22 21:33:00,34.3,30.6,30.01,WNW,302,0.0,0.0,86,0.00,,---,0.00,VWS V14.01,2013-01-23 05:33:00,
2013-01-22 21:38:00,34.3,30.6,30.01,WNW,302,0.0,0.0,86,0.00,,---,0.00,VWS V14.01,2013-01-23 05:38:00,
2013-01-22 21:43:00,34.3,30.6,30.01,WNW,300,0.0,0.0,86,0.00,,---,0.00,VWS V14.01,2013-01-23 05:43:00,
2013-01-22 21:48:00,34.3,30.6,30.01,WNW,294,0.0,0.0,86,0.00,,---,0.00,VWS V14.01,2013-01-23 05:48:00,
2013-01-22 21:53:00,34.3,30.6,30.01,WNW,294,0.0,0.0,86,0.00,,---,0.00,VWS V14.01,2013-01-23 05:53:00,
2013-01-22 21:58:00,34.2,30.5,30.01,WNW,294,0.0,0.0,86,0.00,,---,0.00,VWS V14.01,2013-01-23 05:58:00,
2013-01-22 22:03:00,34.1,30.6,30.01,WNW,288,0.0,0.0,87,0.00,,---,0.00,VWS V14.01,2013-01-23 06:03:00,
2013-01-22 22:08:00,34.0,30.5,30.01,WNW,288,0.0,0.0,87,0.00,,---,0.00,VWS V14.01,2013-01-23 06:08:00,
2013-01-22 22:13:00,33.9,30.5,30.02,WNW,288,0.0,0.0,87,0.00,,---,0.00,VWS V14.01,2013-01-23 06:13:00,
2013-01-22 22:18:00,33.7,30.2,30.02,WNW,288,0.0,0.0,87,0.00,,---,0.00,VWS V14.01,2013-01-23 06:18:00,
2013-01-22 22:23:00,33.6,30.4,30.01,West,279,0.0,0.0,88,0.00,,---,0.00,VWS V14.01,2013-01-23 06:23:00,
2013-01-22 22:28:00,33.6,30.4,30.01,West,279,0.0,0.0,88,0.00,,---,0.00,VWS V14.01,2013-01-23 06:28:00,
2013-01-22 22:33:00,33.9,30.7,30.01,WNW,288,0.0,1.0,88,0.00,,---,0.00,VWS V14.01,2013-01-23 06:33:00,
2013-01-22 22:38:00,34.2,30.7,30.01,WNW,298,2.0,4.0,87,0.00,,---,0.00,VWS V14.01,2013-01-23 06:38:00,
2013-01-22 22:43:00,34.4,30.6,30.01,SE,140,2.0,2.0,86,0.00,,---,0.00,VWS V14.01,2013-01-23 06:43:00,
2013-01-22 22:48:00,34.6,30.9,30.01,SE,132,0.0,1.0,86,0.00,,---,0.00,VWS V14.01,2013-01-23 06:48:00,
2013-01-22 22:53:00,34.7,31.0,30.01,SE,142,0.0,1.0,86,0.00,,---,0.00,VWS V14.01,2013-01-23 06:53:00,
2013-01-22 22:58:00,34.9,30.9,30.00,SE,142,0.0,0.0,85,0.00,,---,0.00,VWS V14.01,2013-01-23 06:58:00,
2013-01-22 23:03:00,34.8,30.8,30.01,WNW,298,0.0,0.0,85,0.00,,---,0.00,VWS V14.01,2013-01-23 07:03:00,
2013-01-22 23:08:00,34.7,30.7,30.00,WNW,299,1.0,1.0,85,0.00,,---,0.00,VWS V14.01,2013-01-23 07:08:00,
2013-01-22 23:13:00,34.7,30.7,30.00,WNW,299,1.0,1.0,85,0.00,,---,0.00,VWS V14.01,2013-01-23 07:13:00,
2013-01-22 23:18:00,34.6,30.6,30.00,SE,132,2.0,2.0,85,0.00,,---,0.00,VWS V14.01,2013-01-23 07:18:00,
2013-01-22 23:24:00,34.5,30.8,30.00,WNW,292,2.0,2.0,86,0.00,,---,0.00,VWS V14.01,2013-01-23 07:24:00,
2013-01-22 23:28:00,34.7,30.7,30.01,NW,309,3.0,3.0,85,0.00,,---,0.00,VWS V14.01,2013-01-23 07:28:00,
2013-01-22 23:34:00,34.7,30.4,30.00,NW,307,0.0,0.0,84,0.00,,---,0.00,VWS V14.01,2013-01-23 07:34:00,
2013-01-22 23:39:00,34.9,30.9,30.00,NW,309,0.0,0.0,85,0.00,,---,0.00,VWS V14.01,2013-01-23 07:39:00,
2013-01-22 23:44:00,35.0,30.7,30.00,NW,304,1.0,2.0,84,0.00,,---,0.00,VWS V14.01,2013-01-23 07:44:00,
2013-01-22 23:49:00,35.3,31.0,30.00,NW,306,1.0,1.0,84,0.00,,---,0.00,VWS V14.01,2013-01-23 07:49:00,
2013-01-22 23:54:00,35.5,30.9,30.00,NW,304,3.0,4.0,83,0.00,,---,0.00,VWS V14.01,2013-01-23 07:54:00,
2013-01-22 23:59:00,35.4,30.8,29.99,NW,314,0.0,3.0,83,0.00,,---,0.00,VWS V14.01,2013-01-23 07:59:00,